This is the latest recevied weather packets stored in our database for station/object KP4FJC. If no packets are shown the sender has not sent any weather packets the latest 1 day(s).
| Time | Temp. | Humidity | Pressure | Rain* | Wind** | Luminosity | Snow |
|---|---|---|---|---|---|---|---|
| 1778086094 | 32.22° C | 54% | 1018.7 hPa | 0 mm | - | 913 W/m² | - |
| 1778083364 | 32.22° C | 55% | 1019.6 hPa | 0 mm | - | 959 W/m² | - |
| 1778083063 | 32.22° C | 53% | 1019.5 hPa | 0 mm | - | 953 W/m² | - |
| 1778080416 | 32.78° C | 56% | 1020 hPa | 0 mm | - | 949 W/m² | - |
| 1778079810 | 31.11° C | 61% | 1020.1 hPa | 0 mm | - | 903 W/m² | - |
| 1778078901 | 31.67° C | 60% | 1019.9 hPa | 0 mm | - | 819 W/m² | - |
| 1778078597 | 31.67° C | 60% | 1020.1 hPa | 0 mm | - | 907 W/m² | - |
| 1778078296 | 31.67° C | 62% | 1020 hPa | 0 mm | - | 209 W/m² | - |
| 1778076482 | 30.56° C | 67% | 1020 hPa | 0 mm | - | 801 W/m² | - |
| 1778074662 | 28.89° C | 75% | 1020.2 hPa | 0 mm | - | 182 W/m² | - |
| 1778073753 | 29.44° C | 71% | 1020.2 hPa | 0 mm | - | 705 W/m² | - |
| 1778073451 | 29.44° C | 71% | 1020.2 hPa | 0 mm | - | 708 W/m² | - |
| 1778072843 | 28.89° C | 72% | 1020.1 hPa | 0 mm | - | 666 W/m² | - |
| 1778071936 | 28.33° C | 76% | 1020.2 hPa | 0 mm | - | 257 W/m² | - |
| 1778071634 | 27.78° C | 77% | 1020 hPa | 0 mm | - | 639 W/m² | - |
| 1778071332 | 27.78° C | 77% | 1019.9 hPa | 0 mm | - | 599 W/m² | - |
| 1778070728 | 28.89° C | 77% | 1020.1 hPa | 0 mm | - | 137 W/m² | - |
| 1778070424 | 28.33° C | 77% | 1019.9 hPa | 0 mm | - | 353 W/m² | - |
| 1778069819 | 28.33° C | 77% | 1019.8 hPa | 0 mm | - | 387 W/m² | - |
| 1778068609 | 27.78° C | 76% | 1019.8 hPa | 0 mm | - | 266 W/m² | - |
| 1778067400 | 26.11° C | 81% | 1019.7 hPa | 0 mm | - | 192 W/m² | - |
| 1778066188 | 24.44° C | 86% | 1019.6 hPa | 0 mm | - | 98 W/m² | - |
| 1778065280 | 23.89° C | 87% | 1019.4 hPa | 0 mm | - | 112 W/m² | - |
| 1778064069 | 23.33° C | 90% | 1019.4 hPa | 0 mm | - | 56 W/m² | - |
| 1778063766 | 23.33° C | 90% | 1019.2 hPa | 0 mm | - | 56 W/m² | - |
* Rain latest hour (hover to see other rain measurements)
** Current wind speed in m/s (hover to see current wind gust speed)